createdAt,value
2023-03-07T00:05:01.499Z,2.01
2023-03-07T00:10:05.648Z,2.07
2023-03-07T00:15:09.788Z,2.17
2023-03-07T00:20:13.938Z,2.30
2023-03-07T00:25:18.135Z,2.40
2023-03-07T00:30:22.320Z,2.49
2023-03-07T00:35:26.459Z,2.65
2023-03-07T00:40:30.643Z,2.78
2023-03-07T00:45:34.817Z,2.83
2023-03-07T00:50:38.933Z,2.89
2023-03-07T00:55:43.105Z,2.96
2023-03-07T01:00:47.279Z,2.99
2023-03-07T01:10:55.583Z,3.03
2023-03-07T01:15:59.773Z,3.05
2023-03-07T01:21:02.030Z,3.03
2023-03-07T01:26:06.196Z,3.04
2023-03-07T01:31:08.473Z,3.03
2023-03-07T01:36:12.676Z,3.04
2023-03-07T01:41:16.811Z,3.04
2023-03-07T01:46:20.967Z,3.07
2023-03-07T01:51:25.150Z,3.09
2023-03-07T01:56:29.330Z,3.10
2023-03-07T02:01:33.545Z,3.13
2023-03-07T02:06:37.630Z,3.17
2023-03-07T02:11:41.773Z,3.22
2023-03-07T02:16:45.928Z,3.25
2023-03-07T02:21:50.126Z,3.26
2023-03-07T02:26:54.289Z,3.29
2023-03-07T02:31:58.481Z,3.30
2023-03-07T02:37:02.584Z,3.30
2023-03-07T02:42:06.778Z,3.33
2023-03-07T02:47:10.910Z,3.30
2023-03-07T02:52:15.078Z,3.29
2023-03-07T02:57:19.257Z,3.28
2023-03-07T03:02:23.395Z,3.27
2023-03-07T03:07:27.630Z,3.27
2023-03-07T03:12:31.751Z,3.27
2023-03-07T03:17:34.034Z,3.28
2023-03-07T03:22:38.208Z,3.26
2023-03-07T03:27:40.477Z,3.27
2023-03-07T03:32:44.643Z,3.26
2023-03-07T03:37:48.809Z,3.24
2023-03-07T03:42:52.963Z,3.24
2023-03-07T03:47:57.175Z,3.23
2023-03-07T03:58:05.459Z,3.27
2023-03-07T04:03:09.763Z,3.26
2023-03-07T04:08:13.794Z,3.28
2023-03-07T04:13:17.943Z,3.29
2023-03-07T04:18:22.138Z,3.27
2023-03-07T04:23:26.283Z,3.25
2023-03-07T04:28:30.417Z,3.24
2023-03-07T04:33:34.611Z,3.23
2023-03-07T04:38:38.734Z,3.20
2023-03-07T04:43:42.982Z,3.20
2023-03-07T04:48:47.102Z,3.20
2023-03-07T04:53:51.265Z,3.21
2023-03-07T04:58:55.414Z,3.23
2023-03-07T05:03:59.683Z,3.24
2023-03-07T05:09:03.762Z,3.27
2023-03-07T05:14:07.895Z,3.27
2023-03-07T05:19:10.183Z,3.27
2023-03-07T05:29:18.549Z,3.28
2023-03-07T05:34:22.669Z,3.28
2023-03-07T05:39:26.819Z,3.27
2023-03-07T05:44:32.598Z,3.25
2023-03-07T05:49:33.386Z,3.25
2023-03-07T05:54:37.445Z,3.23
2023-03-07T05:59:41.629Z,3.22
2023-03-07T06:04:45.795Z,3.20
2023-03-07T06:09:49.916Z,3.19
2023-03-07T06:14:54.131Z,3.17
2023-03-07T06:19:58.253Z,3.17
2023-03-07T06:25:02.421Z,3.18
2023-03-07T06:30:06.600Z,3.20
2023-03-07T06:35:10.761Z,3.21
2023-03-07T06:40:14.934Z,3.21
2023-03-07T06:45:19.092Z,3.22
2023-03-07T06:50:33.445Z,3.24
2023-03-07T06:55:27.394Z,3.28
2023-03-07T07:00:31.576Z,3.31
2023-03-07T07:05:35.734Z,3.31
2023-03-07T07:10:39.882Z,3.32
2023-03-07T07:15:44.071Z,3.34
2023-03-07T07:20:48.245Z,3.34
2023-03-07T07:25:52.389Z,3.33
2023-03-07T07:30:56.575Z,3.33
2023-03-07T07:35:58.973Z,3.34
2023-03-07T07:41:02.994Z,3.35
2023-03-07T07:46:07.216Z,3.38
2023-03-07T07:51:09.426Z,3.42
2023-03-07T07:56:13.624Z,3.44
2023-03-07T08:01:17.794Z,3.46
2023-03-07T08:06:21.992Z,3.48
2023-03-07T08:11:26.093Z,3.49
2023-03-07T08:16:30.297Z,3.49
2023-03-07T08:21:34.434Z,3.50
2023-03-07T08:26:38.601Z,3.52
2023-03-07T08:31:42.802Z,3.55
2023-03-07T08:36:46.920Z,3.57
2023-03-07T08:41:51.082Z,3.58
2023-03-07T08:46:55.227Z,3.56
2023-03-07T08:51:59.430Z,3.53
2023-03-07T08:57:03.566Z,3.54
2023-03-07T09:02:07.802Z,3.53
2023-03-07T09:12:16.036Z,3.46
2023-03-07T09:17:20.207Z,3.45
2023-03-07T09:22:24.411Z,3.47
2023-03-07T09:27:28.544Z,3.47
2023-03-07T09:32:32.775Z,3.47
2023-03-07T09:37:36.953Z,3.46
2023-03-07T09:42:39.177Z,3.40
2023-03-07T09:47:41.428Z,2.64
2023-03-07T09:52:43.740Z,2.51
2023-03-07T09:57:47.909Z,2.52
2023-03-07T10:02:52.068Z,2.51
2023-03-07T10:07:56.216Z,2.45
2023-03-07T10:13:00.402Z,2.49
2023-03-07T10:18:04.905Z,2.44
2023-03-07T10:23:08.681Z,2.38
2023-03-07T10:28:12.864Z,2.45
2023-03-07T10:33:17.021Z,2.49
2023-03-07T10:38:21.281Z,2.46
2023-03-07T10:43:25.366Z,2.48
2023-03-07T10:48:29.520Z,2.45
2023-03-07T10:53:33.702Z,2.47
2023-03-07T10:58:37.823Z,2.43
2023-03-07T11:03:52.032Z,2.37
2023-03-07T11:08:46.189Z,2.34
2023-03-07T11:13:50.336Z,2.36
2023-03-07T11:18:54.489Z,2.36
2023-03-07T11:23:58.800Z,2.36
2023-03-07T11:29:02.851Z,2.46
2023-03-07T11:34:06.991Z,2.34
2023-03-07T11:39:09.227Z,2.26
2023-03-07T11:44:13.460Z,2.37
2023-03-07T11:49:18.688Z,2.33
2023-03-07T11:54:19.866Z,2.33
2023-03-07T11:59:24.015Z,2.35
2023-03-07T12:04:28.228Z,2.45
2023-03-07T12:09:32.370Z,2.44
2023-03-07T12:14:36.525Z,2.43
2023-03-07T12:19:40.709Z,2.49
2023-03-07T12:24:44.864Z,2.51
2023-03-07T12:29:49.007Z,2.49
2023-03-07T12:34:53.181Z,2.42
2023-03-07T12:39:57.333Z,2.45
2023-03-07T12:45:01.535Z,2.45
2023-03-07T12:50:05.661Z,2.53
2023-03-07T12:55:09.867Z,2.39
2023-03-07T13:00:14.020Z,2.44
2023-03-07T13:05:18.188Z,2.38
2023-03-07T13:10:22.308Z,2.33
2023-03-07T13:15:26.512Z,2.19
2023-03-07T13:20:30.677Z,2.23
2023-03-07T13:25:34.836Z,2.14
2023-03-07T13:30:39.022Z,2.19
2023-03-07T13:35:41.300Z,2.24
2023-03-07T13:40:45.449Z,2.25
2023-03-07T13:45:49.745Z,2.21
2023-03-07T13:50:51.882Z,2.25
2023-03-07T14:01:00.331Z,2.32
2023-03-07T14:06:04.349Z,2.39
2023-03-07T14:11:08.548Z,2.34
2023-03-07T14:16:12.756Z,2.35
2023-03-07T14:21:16.879Z,2.31
2023-03-07T14:26:21.021Z,2.30
2023-03-07T14:31:25.300Z,2.26
2023-03-07T14:36:29.356Z,2.23
2023-03-07T14:41:33.525Z,2.24
2023-03-07T14:46:37.739Z,2.26
2023-03-07T14:51:41.853Z,2.24
2023-03-07T14:56:46.045Z,2.23
2023-03-07T15:06:54.356Z,2.23
2023-03-07T15:11:58.509Z,2.18
2023-03-07T15:17:02.658Z,2.25
2023-03-07T15:22:06.876Z,2.21
2023-03-07T15:27:10.997Z,2.18
2023-03-07T15:32:15.220Z,2.07
2023-03-07T15:37:19.349Z,2.01
2023-03-07T15:42:23.584Z,2.03
2023-03-07T15:47:25.792Z,2.02
2023-03-07T15:52:29.922Z,1.96
2023-03-07T15:57:32.218Z,1.95
2023-03-07T16:02:36.506Z,1.95
2023-03-07T16:07:40.517Z,1.80
2023-03-07T16:12:44.711Z,1.78
2023-03-07T16:17:48.858Z,1.74
2023-03-07T16:22:53.045Z,1.73
2023-03-07T16:27:57.192Z,1.72
2023-03-07T16:33:01.369Z,1.66
2023-03-07T16:38:05.506Z,1.68
2023-03-07T16:48:13.897Z,1.60
2023-03-07T16:53:18.011Z,1.54
2023-03-07T16:58:22.186Z,1.51
2023-03-07T17:03:26.377Z,1.51
2023-03-07T17:08:30.512Z,1.51
2023-03-07T17:13:34.716Z,1.50
2023-03-07T17:18:38.903Z,1.45
2023-03-07T17:23:43.031Z,1.44
2023-03-07T17:28:47.265Z,1.43
2023-03-07T17:33:51.318Z,1.36
2023-03-07T17:38:55.534Z,1.31
2023-03-07T17:43:59.666Z,1.21
2023-03-07T17:49:01.982Z,1.20
2023-03-07T17:54:06.110Z,1.11
2023-03-07T17:59:08.396Z,1.01
2023-03-07T18:04:12.562Z,0.96
2023-03-07T18:09:16.725Z,0.93
2023-03-07T18:14:20.887Z,0.87
2023-03-07T18:19:27.036Z,0.77
2023-03-07T18:24:29.220Z,0.68
2023-03-07T18:29:33.376Z,0.67
2023-03-07T18:34:37.545Z,0.66
2023-03-07T18:39:41.762Z,0.63
2023-03-07T18:44:45.855Z,0.60
2023-03-07T18:49:50.053Z,0.57
2023-03-07T18:54:54.165Z,0.52
2023-03-07T18:59:58.362Z,0.49
2023-03-07T19:05:02.678Z,0.47
2023-03-07T19:10:06.717Z,0.47
2023-03-07T19:15:10.885Z,0.43
2023-03-07T19:20:15.045Z,0.44
2023-03-07T19:25:19.190Z,0.42
2023-03-07T19:30:23.399Z,0.39
2023-03-07T19:35:27.522Z,0.40
2023-03-07T19:40:31.703Z,0.39
2023-03-07T19:45:34.120Z,0.37
2023-03-07T19:50:38.162Z,0.33
2023-03-07T19:55:40.446Z,0.31
2023-03-07T20:00:44.594Z,0.29
2023-03-07T20:05:48.835Z,0.29
2023-03-07T20:11:00.909Z,0.29
2023-03-07T20:15:57.168Z,0.30
2023-03-07T20:21:01.240Z,0.32
2023-03-07T20:26:05.447Z,0.33
2023-03-07T20:31:09.641Z,0.35
2023-03-07T20:36:13.714Z,0.34
2023-03-07T20:41:17.900Z,0.34
2023-03-07T20:46:22.141Z,0.30
2023-03-07T20:51:26.219Z,0.29
2023-03-07T20:56:30.425Z,0.29
2023-03-07T21:01:34.582Z,0.31
2023-03-07T21:06:38.744Z,0.32
2023-03-07T21:11:42.920Z,0.34
2023-03-07T21:16:47.079Z,0.34
2023-03-07T21:21:51.255Z,0.32
2023-03-07T21:26:55.429Z,0.36
2023-03-07T21:31:59.571Z,0.37
2023-03-07T21:37:03.707Z,0.36
2023-03-07T21:42:05.989Z,0.35
2023-03-07T21:47:10.170Z,0.35
2023-03-07T21:52:12.494Z,0.34
2023-03-07T21:57:16.609Z,0.32
2023-03-07T22:02:20.761Z,0.35
2023-03-07T22:07:24.906Z,0.36
2023-03-07T22:12:29.098Z,0.37
2023-03-07T22:17:33.262Z,0.39
2023-03-07T22:27:41.608Z,0.42
2023-03-07T22:32:45.786Z,0.44
2023-03-07T22:37:49.937Z,0.45
2023-03-07T22:42:54.107Z,0.47
2023-03-07T22:47:58.255Z,0.45
2023-03-07T22:53:02.440Z,0.44
2023-03-07T22:58:06.579Z,0.44
2023-03-07T23:03:10.805Z,0.46
2023-03-07T23:08:14.905Z,0.46
2023-03-07T23:13:19.140Z,0.47
2023-03-07T23:18:23.292Z,0.48
2023-03-07T23:23:27.426Z,0.48
2023-03-07T23:28:31.568Z,0.50
2023-03-07T23:33:35.712Z,0.51
2023-03-07T23:38:39.898Z,0.49
2023-03-07T23:43:42.163Z,0.52
2023-03-07T23:48:46.428Z,0.53
2023-03-07T23:53:48.651Z,0.53
2023-03-07T23:58:52.806Z,0.56
